createdAt,value
2023-03-29T00:02:25.240Z,4.30
2023-03-29T00:04:51.779Z,3.53
2023-03-29T00:07:18.262Z,2.83
2023-03-29T00:09:44.766Z,3.63
2023-03-29T00:12:12.361Z,3.17
2023-03-29T00:14:38.862Z,2.80
2023-03-29T00:17:05.718Z,3.65
2023-03-29T00:19:32.353Z,2.70
2023-03-29T00:21:58.830Z,3.60
2023-03-29T00:24:25.327Z,4.18
2023-03-29T00:26:51.966Z,3.40
2023-03-29T00:29:18.471Z,4.05
2023-03-29T00:31:44.977Z,4.15
2023-03-29T00:34:11.664Z,3.70
2023-03-29T00:36:38.138Z,3.17
2023-03-29T00:39:04.711Z,4.68
2023-03-29T00:41:31.310Z,5.38
2023-03-29T00:43:59.952Z,3.95
2023-03-29T00:46:28.036Z,4.97
2023-03-29T00:48:58.350Z,2.97
2023-03-29T00:53:56.404Z,5.80
2023-03-29T00:56:43.789Z,5.43
2023-03-29T00:59:13.778Z,3.50
2023-03-29T01:01:48.334Z,4.82
2023-03-29T01:04:23.872Z,3.70
2023-03-29T01:06:57.177Z,3.25
2023-03-29T01:09:24.740Z,3.30
2023-03-29T01:11:54.317Z,5.15
2023-03-29T01:14:31.938Z,5.55
2023-03-29T01:16:58.471Z,3.17
2023-03-29T01:19:28.622Z,4.53
2023-03-29T01:22:05.282Z,2.60
2023-03-29T01:24:46.288Z,5.63
2023-03-29T01:27:19.506Z,4.22
2023-03-29T01:29:50.769Z,3.60
2023-03-29T01:32:24.620Z,2.67
2023-03-29T01:35:00.846Z,3.40
2023-03-29T01:37:32.071Z,2.47
2023-03-29T01:39:58.533Z,3.30
2023-03-29T01:42:46.165Z,3.58
2023-03-29T01:45:25.271Z,2.78
2023-03-29T01:48:01.341Z,3.70
2023-03-29T01:50:53.006Z,3.63
2023-03-29T01:53:34.234Z,5.63
2023-03-29T01:56:06.669Z,6.45
2023-03-29T01:58:36.729Z,3.10
2023-03-29T02:01:04.358Z,4.95
2023-03-29T02:03:32.950Z,2.50
2023-03-29T02:06:00.239Z,2.95
2023-03-29T02:09:40.981Z,2.70
2023-03-29T02:12:08.444Z,6.68
2023-03-29T02:15:19.836Z,3.78
2023-03-29T02:17:48.157Z,2.75
2023-03-29T02:20:32.488Z,3.30
2023-03-29T02:23:07.192Z,3.95
2023-03-29T02:25:34.427Z,4.75
2023-03-29T02:28:01.524Z,4.63
2023-03-29T02:30:32.816Z,3.08
2023-03-29T02:33:06.736Z,3.25
2023-03-29T02:35:36.435Z,2.33
2023-03-29T02:38:06.435Z,2.50
2023-03-29T02:40:33.255Z,4.50
2023-03-29T02:43:01.857Z,2.22
2023-03-29T02:45:28.947Z,5.07
2023-03-29T02:47:57.538Z,2.85
2023-03-29T02:50:26.029Z,3.65
2023-03-29T02:53:01.948Z,1.90
2023-03-29T02:55:29.430Z,6.35
2023-03-29T02:57:55.941Z,3.88
2023-03-29T03:00:22.593Z,2.17
2023-03-29T03:02:49.251Z,4.05
2023-03-29T03:05:16.209Z,4.57
2023-03-29T03:07:42.679Z,3.88
2023-03-29T03:10:10.047Z,3.13
2023-03-29T03:12:36.870Z,3.30
2023-03-29T03:15:04.972Z,3.00
2023-03-29T03:17:32.384Z,3.88
2023-03-29T03:19:59.227Z,3.33
2023-03-29T03:22:26.182Z,2.70
2023-03-29T03:24:52.690Z,4.45
2023-03-29T03:27:19.281Z,2.78
2023-03-29T03:29:45.767Z,5.50
2023-03-29T03:32:12.273Z,2.50
2023-03-29T03:34:38.989Z,3.03
2023-03-29T03:37:05.474Z,3.17
2023-03-29T03:39:31.960Z,2.67
2023-03-29T03:41:59.467Z,2.47
2023-03-29T03:44:25.953Z,3.08
2023-03-29T03:46:52.971Z,2.55
2023-03-29T03:49:19.432Z,2.33
2023-03-29T03:51:45.918Z,2.85
2023-03-29T03:54:12.524Z,2.22
2023-03-29T03:56:39.029Z,3.78
2023-03-29T03:59:08.646Z,2.80
2023-03-29T04:01:35.099Z,2.05
2023-03-29T04:04:01.783Z,2.97
2023-03-29T04:06:28.355Z,2.15
2023-03-29T04:08:54.876Z,3.00
2023-03-29T04:11:21.348Z,3.38
2023-03-29T04:13:47.872Z,2.90
2023-03-29T04:16:14.418Z,4.93
2023-03-29T04:18:41.018Z,5.43
2023-03-29T04:21:07.831Z,3.13
2023-03-29T04:23:36.051Z,6.97
2023-03-29T04:26:02.519Z,3.83
2023-03-29T04:28:28.999Z,3.72
2023-03-29T04:30:55.485Z,8.30
2023-03-29T04:33:22.025Z,1.67
2023-03-29T04:35:48.633Z,4.65
2023-03-29T04:38:15.124Z,2.70
2023-03-29T04:40:41.702Z,4.20
2023-03-29T04:43:08.212Z,2.25
2023-03-29T04:45:34.829Z,4.88
2023-03-29T04:48:01.327Z,2.83
2023-03-29T04:50:28.161Z,2.85
2023-03-29T04:52:54.652Z,5.00
2023-03-29T04:55:21.145Z,2.17
2023-03-29T04:57:47.613Z,2.97
2023-03-29T05:00:14.615Z,5.15
2023-03-29T05:02:43.041Z,3.17
2023-03-29T05:05:10.550Z,1.95
2023-03-29T05:07:37.377Z,2.95
2023-03-29T05:10:04.330Z,5.63
2023-03-29T05:12:30.918Z,2.33
2023-03-29T05:14:57.440Z,3.10
2023-03-29T05:17:24.078Z,4.65
2023-03-29T05:19:52.767Z,4.45
2023-03-29T05:22:19.361Z,3.55
2023-03-29T05:24:45.857Z,6.82
2023-03-29T05:27:12.429Z,6.22
2023-03-29T05:29:39.000Z,5.47
2023-03-29T05:32:05.672Z,4.75
2023-03-29T05:34:32.184Z,5.10
2023-03-29T05:36:58.731Z,5.18
2023-03-29T05:39:25.268Z,6.45
2023-03-29T05:41:51.750Z,3.75
2023-03-29T05:44:18.298Z,2.72
2023-03-29T05:46:44.767Z,4.13
2023-03-29T05:49:11.328Z,3.60
2023-03-29T05:51:37.979Z,4.60
2023-03-29T05:54:04.733Z,4.47
2023-03-29T05:56:31.265Z,2.60
2023-03-29T05:58:57.763Z,2.78
2023-03-29T06:01:24.362Z,2.70
2023-03-29T06:03:51.928Z,4.25
2023-03-29T06:06:18.573Z,1.92
2023-03-29T06:08:45.252Z,2.58
2023-03-29T06:11:12.557Z,4.38
2023-03-29T06:13:39.252Z,4.38
2023-03-29T06:16:08.834Z,7.75
2023-03-29T06:18:35.625Z,2.35
2023-03-29T06:21:02.430Z,3.00
2023-03-29T06:23:29.488Z,4.70
2023-03-29T06:25:56.193Z,3.80
2023-03-29T06:28:23.370Z,3.67
2023-03-29T06:30:50.242Z,2.50
2023-03-29T06:33:16.954Z,3.05
2023-03-29T06:35:45.750Z,2.80
2023-03-29T06:38:12.311Z,4.10
2023-03-29T06:40:38.820Z,6.40
2023-03-29T06:43:05.814Z,3.25
2023-03-29T06:45:34.676Z,3.80
2023-03-29T06:48:01.852Z,3.65
2023-03-29T06:50:28.824Z,2.55
2023-03-29T06:52:55.423Z,3.65
2023-03-29T06:55:22.023Z,4.45
2023-03-29T06:57:48.616Z,3.05
2023-03-29T07:00:15.822Z,3.28
2023-03-29T07:02:42.522Z,2.10
2023-03-29T07:05:09.861Z,2.15
2023-03-29T07:07:36.401Z,4.90
2023-03-29T07:10:02.881Z,4.80
2023-03-29T07:12:29.708Z,3.75
2023-03-29T07:14:56.234Z,4.40
2023-03-29T07:17:22.841Z,2.22
2023-03-29T07:19:49.385Z,3.90
2023-03-29T07:22:15.966Z,4.47
2023-03-29T07:24:42.762Z,4.45
2023-03-29T07:27:09.851Z,3.47
2023-03-29T07:29:36.413Z,4.63
2023-03-29T07:32:02.976Z,2.60
2023-03-29T07:34:29.446Z,3.25
2023-03-29T07:36:55.925Z,3.25
2023-03-29T07:39:22.446Z,1.67
2023-03-29T07:41:48.999Z,4.88
2023-03-29T07:44:15.497Z,2.30
2023-03-29T07:46:42.003Z,1.83
2023-03-29T07:49:08.535Z,7.10
2023-03-29T07:51:35.066Z,4.75
2023-03-29T07:54:01.535Z,8.68
2023-03-29T07:56:28.011Z,3.33
2023-03-29T07:58:54.498Z,4.60
2023-03-29T08:01:21.085Z,5.30
2023-03-29T08:03:48.359Z,4.03
2023-03-29T08:06:14.963Z,4.93
2023-03-29T08:08:41.528Z,5.17
2023-03-29T08:11:08.034Z,4.53
2023-03-29T08:13:34.526Z,3.47
2023-03-29T08:16:01.099Z,3.30
2023-03-29T08:18:27.706Z,5.70
2023-03-29T08:20:54.207Z,2.10
2023-03-29T08:23:20.706Z,4.87
2023-03-29T08:25:47.196Z,4.73
2023-03-29T08:28:13.729Z,3.70
2023-03-29T08:30:40.317Z,4.07
2023-03-29T08:33:06.859Z,2.40
2023-03-29T08:35:33.395Z,5.17
2023-03-29T08:38:00.055Z,2.00
2023-03-29T08:40:28.190Z,2.67
2023-03-29T08:43:05.633Z,1.97
2023-03-29T08:45:44.732Z,3.30
2023-03-29T08:48:23.813Z,3.30
2023-03-29T08:50:53.076Z,3.33
2023-03-29T08:53:19.522Z,2.97
2023-03-29T08:55:47.947Z,2.37
2023-03-29T08:58:17.942Z,3.37
2023-03-29T09:03:29.100Z,3.27
2023-03-29T09:06:04.770Z,5.43
2023-03-29T09:08:31.369Z,4.57
2023-03-29T09:11:09.676Z,4.50
2023-03-29T09:13:46.240Z,4.10
2023-03-29T09:16:18.745Z,5.10
2023-03-29T09:19:06.868Z,3.03
2023-03-29T09:21:33.373Z,4.60
2023-03-29T09:24:18.370Z,4.40
2023-03-29T09:26:48.782Z,4.13
2023-03-29T09:29:47.697Z,3.63
2023-03-29T09:32:31.925Z,6.03
2023-03-29T09:35:25.395Z,4.83
2023-03-29T09:37:54.236Z,3.40
2023-03-29T09:40:25.169Z,4.60
2023-03-29T09:42:52.877Z,3.23
2023-03-29T09:45:19.362Z,3.50
2023-03-29T09:47:58.407Z,5.07
2023-03-29T09:50:32.464Z,5.65
2023-03-29T09:52:59.402Z,4.60
2023-03-29T09:55:28.488Z,4.80
2023-03-29T09:57:58.792Z,7.93
2023-03-29T10:00:25.612Z,4.57
2023-03-29T10:02:57.370Z,3.90
2023-03-29T10:05:25.619Z,5.77
2023-03-29T10:07:54.481Z,4.40
2023-03-29T10:10:22.959Z,5.47
2023-03-29T10:12:51.423Z,5.97
2023-03-29T10:15:29.272Z,6.67
2023-03-29T10:18:07.484Z,4.33
2023-03-29T10:20:39.365Z,5.23
2023-03-29T10:23:08.131Z,3.30
2023-03-29T10:30:35.452Z,5.90
2023-03-29T10:33:02.130Z,7.65
2023-03-29T10:35:39.376Z,6.50
2023-03-29T10:38:11.500Z,5.80
2023-03-29T10:40:48.264Z,2.97
2023-03-29T10:43:17.792Z,6.47
2023-03-29T10:45:48.381Z,4.38
2023-03-29T10:48:16.721Z,4.20
2023-03-29T10:50:48.873Z,3.37
2023-03-29T10:53:26.597Z,4.47
2023-03-29T10:56:03.002Z,7.07
2023-03-29T10:58:54.890Z,5.20
2023-03-29T11:01:31.865Z,9.67
2023-03-29T11:04:01.405Z,5.23
2023-03-29T11:06:34.978Z,3.25
2023-03-29T11:09:07.129Z,5.10
2023-03-29T11:12:08.283Z,7.83
2023-03-29T11:14:47.457Z,6.60
2023-03-29T11:17:31.271Z,4.33
2023-03-29T11:20:06.191Z,3.03
2023-03-29T11:22:44.522Z,5.97
2023-03-29T11:25:17.041Z,6.03
2023-03-29T11:28:20.544Z,7.37
2023-03-29T11:30:53.345Z,8.13
2023-03-29T11:33:32.275Z,5.57
2023-03-29T11:36:04.998Z,4.83
2023-03-29T11:38:31.504Z,4.23
2023-03-29T11:41:01.280Z,8.43
2023-03-29T11:46:34.842Z,4.87
2023-03-29T11:49:06.409Z,7.07
2023-03-29T11:51:38.055Z,7.30
2023-03-29T11:54:15.291Z,4.03
2023-03-29T11:56:47.754Z,5.33
2023-03-29T11:59:35.905Z,5.07
2023-03-29T12:02:29.488Z,5.13
2023-03-29T12:04:59.019Z,3.87
2023-03-29T12:07:44.067Z,3.70
2023-03-29T12:10:19.675Z,6.47
2023-03-29T12:12:55.385Z,6.50
2023-03-29T12:15:24.605Z,5.27
2023-03-29T12:18:06.382Z,5.80
2023-03-29T12:20:36.311Z,5.33
2023-03-29T12:25:59.618Z,4.23
2023-03-29T12:28:51.030Z,4.00
2023-03-29T12:31:23.508Z,5.40
2023-03-29T12:34:01.899Z,7.67
2023-03-29T12:37:14.878Z,5.80
2023-03-29T12:39:41.473Z,7.87
2023-03-29T12:42:19.586Z,6.73
2023-03-29T12:44:51.060Z,6.93
2023-03-29T12:47:21.094Z,5.57
2023-03-29T12:49:47.776Z,5.43
2023-03-29T12:52:33.949Z,7.53
2023-03-29T12:55:41.772Z,9.77
2023-03-29T12:58:24.626Z,5.07
2023-03-29T13:01:06.005Z,8.33
2023-03-29T13:03:47.637Z,8.17
2023-03-29T13:06:34.678Z,5.47
2023-03-29T13:09:22.789Z,7.37
2023-03-29T13:11:57.521Z,9.10
2023-03-29T13:14:27.729Z,6.30
2023-03-29T13:17:15.591Z,4.47
2023-03-29T13:19:59.746Z,8.67
2023-03-29T13:22:53.329Z,6.37
2023-03-29T13:25:41.578Z,6.13
2023-03-29T13:28:30.180Z,5.23
2023-03-29T13:31:02.982Z,5.43
2023-03-29T13:34:02.131Z,5.20
2023-03-29T13:37:06.257Z,8.52
2023-03-29T13:39:34.836Z,4.07
2023-03-29T13:42:23.166Z,9.57
2023-03-29T13:44:51.662Z,5.37
2023-03-29T13:47:37.198Z,5.07
2023-03-29T13:50:09.971Z,10.23
2023-03-29T13:52:41.178Z,7.43
2023-03-29T13:55:14.788Z,6.13
2023-03-29T13:57:51.706Z,5.67
2023-03-29T14:00:18.844Z,5.87
2023-03-29T14:02:58.237Z,9.27
2023-03-29T14:05:32.207Z,5.35
2023-03-29T14:08:08.140Z,5.07
2023-03-29T14:10:41.076Z,6.97
2023-03-29T14:13:12.658Z,3.90
2023-03-29T14:16:03.416Z,5.13
2023-03-29T14:18:36.539Z,5.77
2023-03-29T14:21:03.506Z,8.50
2023-03-29T14:23:32.532Z,6.40
2023-03-29T14:26:21.498Z,5.57
2023-03-29T14:28:49.415Z,4.78
2023-03-29T14:31:45.178Z,6.00
2023-03-29T14:34:14.701Z,8.50
2023-03-29T14:36:47.553Z,5.50
2023-03-29T14:39:17.627Z,6.33
2023-03-29T14:41:55.734Z,4.20
2023-03-29T14:44:25.148Z,8.33
2023-03-29T14:46:51.876Z,7.25
2023-03-29T14:49:19.741Z,7.80
2023-03-29T14:51:46.807Z,4.03
2023-03-29T14:54:27.865Z,6.93
2023-03-29T14:56:55.144Z,6.00
2023-03-29T14:59:42.536Z,6.57
2023-03-29T15:02:28.812Z,8.40
2023-03-29T15:05:03.254Z,7.10
2023-03-29T15:07:30.784Z,7.43
2023-03-29T15:09:58.371Z,6.80
2023-03-29T15:12:25.419Z,7.33
2023-03-29T15:14:52.624Z,8.57
2023-03-29T15:17:47.633Z,8.33
2023-03-29T15:20:29.865Z,7.33
2023-03-29T15:23:07.919Z,9.13
2023-03-29T15:25:42.159Z,9.73
2023-03-29T15:28:24.890Z,9.67
2023-03-29T15:31:04.737Z,9.90
2023-03-29T15:33:36.971Z,7.87
2023-03-29T15:36:05.283Z,5.20
2023-03-29T15:38:43.246Z,7.17
2023-03-29T15:41:12.869Z,9.30
2023-03-29T15:43:39.399Z,6.53
2023-03-29T15:46:06.156Z,9.07
2023-03-29T15:48:32.798Z,8.23
2023-03-29T15:51:01.942Z,8.43
2023-03-29T15:53:30.383Z,8.83
2023-03-29T15:56:00.352Z,8.50
2023-03-29T15:58:29.727Z,4.57
2023-03-29T16:01:00.210Z,12.27
2023-03-29T16:03:26.735Z,7.60
2023-03-29T16:05:53.520Z,9.27
2023-03-29T16:08:44.531Z,7.73
2023-03-29T16:11:11.087Z,6.03
2023-03-29T16:16:18.994Z,10.57
2023-03-29T16:18:47.778Z,10.33
2023-03-29T16:21:16.413Z,9.97
2023-03-29T16:23:45.924Z,10.83
2023-03-29T16:26:13.971Z,8.13
2023-03-29T16:28:43.709Z,10.27
2023-03-29T16:31:11.986Z,6.33
2023-03-29T16:33:39.527Z,10.87
2023-03-29T16:39:15.822Z,10.63
2023-03-29T16:41:43.106Z,6.30
2023-03-29T16:44:15.609Z,8.23
2023-03-29T16:46:42.176Z,9.67
2023-03-29T16:49:12.779Z,7.40
2023-03-29T16:51:39.371Z,8.13
2023-03-29T16:54:06.120Z,10.30
2023-03-29T16:56:32.629Z,9.27
2023-03-29T16:58:59.117Z,12.10
2023-03-29T17:01:25.734Z,7.87
2023-03-29T17:03:52.299Z,12.20
2023-03-29T17:06:18.869Z,12.53
2023-03-29T17:08:45.465Z,10.77
2023-03-29T17:11:12.044Z,11.07
2023-03-29T17:13:38.598Z,9.23
2023-03-29T17:16:05.759Z,10.47
2023-03-29T17:18:32.537Z,10.37
2023-03-29T17:20:59.128Z,12.93
2023-03-29T17:23:28.547Z,14.40
2023-03-29T17:25:55.438Z,16.38
2023-03-29T17:28:22.733Z,15.93
2023-03-29T17:30:49.381Z,28.33
2023-03-29T17:33:16.303Z,10.60
2023-03-29T17:35:44.143Z,9.97
2023-03-29T17:38:11.440Z,10.87
2023-03-29T17:40:38.182Z,6.47
2023-03-29T17:43:04.905Z,10.07
2023-03-29T17:45:31.407Z,10.67
2023-03-29T17:47:58.412Z,16.67
2023-03-29T17:50:25.153Z,10.83
2023-03-29T17:52:51.714Z,8.07
2023-03-29T17:55:18.548Z,12.27
2023-03-29T17:57:45.086Z,12.43
2023-03-29T18:00:13.479Z,9.07
2023-03-29T18:02:40.891Z,11.40
2023-03-29T18:05:09.541Z,14.00
2023-03-29T18:07:38.314Z,12.80
2023-03-29T18:10:05.280Z,16.83
2023-03-29T18:13:31.434Z,6.87
2023-03-29T18:15:58.599Z,11.07
2023-03-29T18:18:25.272Z,18.73
2023-03-29T18:20:51.937Z,14.37
2023-03-29T18:24:05.991Z,13.03
2023-03-29T18:26:32.786Z,9.30
2023-03-29T18:28:59.343Z,10.80
2023-03-29T18:31:25.976Z,11.20
2023-03-29T18:37:10.525Z,14.67
2023-03-29T18:42:43.240Z,11.17
2023-03-29T18:45:10.284Z,13.70
2023-03-29T18:47:37.949Z,13.10
2023-03-29T18:50:04.890Z,19.83
2023-03-29T18:52:31.408Z,16.67
2023-03-29T18:54:57.926Z,23.80
2023-03-29T18:57:24.534Z,20.13
2023-03-29T18:59:51.301Z,12.00
2023-03-29T19:02:17.958Z,12.60
2023-03-29T19:04:44.586Z,15.60
2023-03-29T19:07:11.251Z,22.00
2023-03-29T19:09:37.761Z,20.70
2023-03-29T19:12:06.918Z,16.47
2023-03-29T19:14:33.534Z,16.70
2023-03-29T19:17:00.058Z,13.87
2023-03-29T19:19:27.750Z,9.97
2023-03-29T19:21:54.320Z,14.63
2023-03-29T19:24:20.945Z,14.07
2023-03-29T19:26:47.565Z,15.33
2023-03-29T19:29:14.066Z,16.13
2023-03-29T19:31:49.974Z,10.80
2023-03-29T19:34:16.561Z,14.03
2023-03-29T19:37:06.134Z,10.53
2023-03-29T19:39:32.681Z,13.07
2023-03-29T19:41:59.293Z,19.13
2023-03-29T19:44:25.786Z,22.70
2023-03-29T19:46:52.400Z,15.80
2023-03-29T19:49:18.973Z,9.10
2023-03-29T19:51:45.610Z,14.67
2023-03-29T19:54:14.104Z,14.63
2023-03-29T19:56:40.872Z,11.90
2023-03-29T19:59:07.476Z,18.57
2023-03-29T20:01:34.121Z,16.67
2023-03-29T20:04:00.716Z,9.70
2023-03-29T20:09:26.622Z,15.52
2023-03-29T20:11:53.300Z,14.57
2023-03-29T20:14:20.113Z,12.77
2023-03-29T20:16:52.237Z,8.63
2023-03-29T20:19:19.993Z,14.63
2023-03-29T20:24:37.509Z,17.40
2023-03-29T20:27:05.057Z,11.07
2023-03-29T20:29:31.816Z,16.93
2023-03-29T20:31:58.795Z,17.63
2023-03-29T20:34:26.028Z,12.80
2023-03-29T20:36:52.656Z,14.83
2023-03-29T20:39:19.297Z,17.73
2023-03-29T20:41:48.478Z,13.63
2023-03-29T20:44:15.359Z,7.72
2023-03-29T20:46:42.117Z,18.00
2023-03-29T20:49:08.681Z,13.93
2023-03-29T20:51:43.675Z,15.93
2023-03-29T20:54:10.353Z,11.13
2023-03-29T20:56:39.025Z,14.90
2023-03-29T20:59:07.105Z,12.53
2023-03-29T21:01:33.865Z,16.27
2023-03-29T21:04:00.621Z,14.00
2023-03-29T21:06:27.174Z,15.60
2023-03-29T21:08:53.675Z,14.60
2023-03-29T21:14:47.468Z,13.60
2023-03-29T21:17:14.008Z,12.87
2023-03-29T21:19:51.255Z,15.53
2023-03-29T21:22:20.736Z,15.00
2023-03-29T21:24:47.397Z,12.55
2023-03-29T21:27:13.904Z,10.40
2023-03-29T21:29:40.447Z,18.20
2023-03-29T21:32:07.018Z,19.53
2023-03-29T21:34:34.717Z,14.40
2023-03-29T21:37:01.383Z,24.40
2023-03-29T21:39:28.170Z,11.03
2023-03-29T21:41:54.661Z,14.03
2023-03-29T21:44:27.781Z,7.37
2023-03-29T21:46:54.335Z,8.77
2023-03-29T21:49:20.950Z,12.33
2023-03-29T21:51:47.460Z,16.40
2023-03-29T21:54:13.974Z,13.27
2023-03-29T21:56:40.489Z,13.80
2023-03-29T21:59:08.240Z,11.67
2023-03-29T22:01:34.746Z,12.40
2023-03-29T22:04:01.360Z,16.27
2023-03-29T22:06:27.845Z,12.83
2023-03-29T22:11:40.866Z,18.70
2023-03-29T22:14:07.400Z,12.27
2023-03-29T22:16:35.243Z,12.40
2023-03-29T22:19:01.726Z,11.53
2023-03-29T22:21:29.225Z,13.40
2023-03-29T22:23:58.499Z,9.87
2023-03-29T22:26:27.903Z,16.80
2023-03-29T22:28:54.595Z,19.45
2023-03-29T22:31:22.436Z,17.57
2023-03-29T22:33:49.284Z,15.40
2023-03-29T22:36:16.980Z,17.20
2023-03-29T22:38:45.467Z,16.23
2023-03-29T22:41:15.670Z,12.27
2023-03-29T22:43:42.203Z,19.17
2023-03-29T22:46:10.862Z,12.53
2023-03-29T22:48:37.595Z,12.83
2023-03-29T22:51:04.425Z,16.60
2023-03-29T22:53:59.258Z,16.10
2023-03-29T22:56:26.071Z,16.80
2023-03-29T22:58:52.670Z,13.20
2023-03-29T23:04:46.273Z,12.07
2023-03-29T23:19:14.921Z,16.97
2023-03-29T23:21:41.774Z,11.77
2023-03-29T23:25:28.999Z,11.40
2023-03-29T23:27:55.705Z,12.77
2023-03-29T23:30:22.412Z,12.63
2023-03-29T23:32:49.750Z,16.97
2023-03-29T23:35:16.573Z,16.80
2023-03-29T23:40:18.551Z,15.17
2023-03-29T23:42:45.994Z,15.93
2023-03-29T23:45:15.494Z,12.97
2023-03-29T23:47:43.130Z,12.52
2023-03-29T23:50:10.876Z,11.80
2023-03-29T23:52:37.585Z,14.03
2023-03-29T23:55:04.621Z,26.87
2023-03-29T23:57:31.117Z,14.63
2023-03-29T23:59:57.615Z,13.60
